createdAt,value
2022-08-22T00:00:30.442Z,20.83
2022-08-22T00:02:55.438Z,21.34
2022-08-22T00:02:55.613Z,21.19
2022-08-22T00:02:59.341Z,21.00
2022-08-22T00:03:09.594Z,21.06
2022-08-22T00:03:10.387Z,21.69
2022-08-22T00:03:11.561Z,21.64
2022-08-22T00:03:17.469Z,20.81
2022-08-22T00:05:45.142Z,20.78
2022-08-22T00:08:11.439Z,20.74
2022-08-22T00:10:37.980Z,20.73
2022-08-22T00:13:04.482Z,20.70
2022-08-22T00:15:42.100Z,20.68
2022-08-22T00:18:10.210Z,20.67
2022-08-22T00:20:36.429Z,20.62
2022-08-22T00:23:02.718Z,20.58
2022-08-22T00:25:29.213Z,20.56
2022-08-22T00:27:59.597Z,20.53
2022-08-22T00:30:26.213Z,20.50
2022-08-22T00:32:52.474Z,20.47
2022-08-22T00:35:28.169Z,20.44
2022-08-22T00:37:58.214Z,20.41
2022-08-22T00:40:24.756Z,20.38
2022-08-22T00:42:51.705Z,20.36
2022-08-22T00:45:18.287Z,20.30
2022-08-22T00:47:44.717Z,20.26
2022-08-22T00:50:13.501Z,20.20
2022-08-22T00:52:39.794Z,20.16
2022-08-22T00:55:09.220Z,20.13
2022-08-22T00:57:35.492Z,20.12
2022-08-22T01:00:01.830Z,20.08
2022-08-22T01:02:28.404Z,20.07
2022-08-22T01:04:54.707Z,20.05
2022-08-22T01:07:21.237Z,20.04
2022-08-22T01:09:47.588Z,20.02
2022-08-22T01:12:13.873Z,20.00
2022-08-22T01:14:40.633Z,19.98
2022-08-22T01:17:07.053Z,19.95
2022-08-22T01:19:35.901Z,19.94
2022-08-22T01:22:02.345Z,19.91
2022-08-22T01:24:30.876Z,19.88
2022-08-22T01:26:59.898Z,19.86
2022-08-22T01:29:27.728Z,19.84
2022-08-22T01:31:55.316Z,19.80
2022-08-22T01:34:21.906Z,19.76
2022-08-22T01:36:48.464Z,19.70
2022-08-22T01:39:15.318Z,19.66
2022-08-22T01:41:41.752Z,19.63
2022-08-22T01:44:08.388Z,19.60
2022-08-22T01:46:34.722Z,19.59
2022-08-22T01:49:02.493Z,19.57
2022-08-22T01:51:28.911Z,19.54
2022-08-22T01:53:55.284Z,19.50
2022-08-22T01:56:21.602Z,19.48
2022-08-22T01:58:54.161Z,19.48
2022-08-22T02:01:23.908Z,19.45
2022-08-22T02:03:50.274Z,19.43
2022-08-22T02:06:16.637Z,19.40
2022-08-22T02:08:48.954Z,19.36
2022-08-22T02:11:18.095Z,19.33
2022-08-22T02:13:44.418Z,19.29
2022-08-22T02:16:12.976Z,19.26
2022-08-22T02:18:41.263Z,19.25
2022-08-22T02:21:07.656Z,19.23
2022-08-22T02:23:35.534Z,19.20
2022-08-22T02:26:01.910Z,19.18
2022-08-22T02:28:28.410Z,19.16
2022-08-22T02:30:54.911Z,19.14
2022-08-22T02:33:21.220Z,19.10
2022-08-22T02:35:48.560Z,19.09
2022-08-22T02:38:15.032Z,19.06
2022-08-22T02:40:41.410Z,19.03
2022-08-22T02:43:09.669Z,18.99
2022-08-22T02:48:27.692Z,18.92
2022-08-22T02:50:54.445Z,18.90
2022-08-22T02:53:23.884Z,18.89
2022-08-22T02:55:50.242Z,18.87
2022-08-22T02:58:16.575Z,18.86
2022-08-22T03:00:43.152Z,18.83
2022-08-22T03:03:09.877Z,18.82
2022-08-22T03:05:36.217Z,18.80
2022-08-22T03:08:02.594Z,18.78
2022-08-22T03:10:29.038Z,18.75
2022-08-22T03:12:57.544Z,18.73
2022-08-22T03:15:24.238Z,18.71
2022-08-22T03:17:50.691Z,18.68
2022-08-22T03:20:19.908Z,18.66
2022-08-22T03:22:46.360Z,18.65
2022-08-22T03:25:12.819Z,18.63
2022-08-22T03:27:39.241Z,18.62
2022-08-22T03:30:05.590Z,18.60
2022-08-22T03:32:40.642Z,18.58
2022-08-22T03:35:07.155Z,18.56
2022-08-22T03:37:33.443Z,18.53
2022-08-22T03:39:59.851Z,18.51
2022-08-22T03:42:26.311Z,18.50
2022-08-22T03:44:54.990Z,18.49
2022-08-22T03:47:21.506Z,18.49
2022-08-22T03:49:48.117Z,18.46
2022-08-22T03:52:18.179Z,18.45
2022-08-22T03:54:50.790Z,18.43
2022-08-22T03:57:19.208Z,18.39
2022-08-22T03:59:45.566Z,18.38
2022-08-22T04:02:29.449Z,18.36
2022-08-22T04:04:58.197Z,18.33
2022-08-22T04:07:31.618Z,18.31
2022-08-22T04:09:58.832Z,18.29
2022-08-22T04:12:32.714Z,18.29
2022-08-22T04:14:59.033Z,18.27
2022-08-22T04:17:25.482Z,18.27
2022-08-22T04:19:51.927Z,18.25
2022-08-22T04:22:18.460Z,18.25
2022-08-22T04:24:44.775Z,18.22
2022-08-22T04:27:22.262Z,18.21
2022-08-22T04:29:52.564Z,18.19
2022-08-22T04:32:19.385Z,18.20
2022-08-22T04:34:47.781Z,18.19
2022-08-22T04:37:15.454Z,18.21
2022-08-22T04:39:43.796Z,18.22
2022-08-22T04:42:31.229Z,18.29
2022-08-22T04:44:56.695Z,18.35
2022-08-22T04:47:23.338Z,18.42
2022-08-22T04:49:49.686Z,18.48
2022-08-22T04:52:16.023Z,18.54
2022-08-22T04:54:42.447Z,18.61
2022-08-22T04:57:10.588Z,18.69
2022-08-22T04:59:37.071Z,18.76
2022-08-22T05:02:04.905Z,18.85
2022-08-22T05:04:31.302Z,18.92
2022-08-22T05:07:00.530Z,18.98
2022-08-22T05:09:26.872Z,19.06
2022-08-22T05:14:57.509Z,19.17
2022-08-22T05:17:24.774Z,19.24
2022-08-22T05:19:51.085Z,19.33
2022-08-22T05:22:17.507Z,19.43
2022-08-22T05:24:44.213Z,19.53
2022-08-22T05:27:14.424Z,19.64
2022-08-22T05:29:47.287Z,19.75
2022-08-22T05:32:15.656Z,19.82
2022-08-22T05:34:43.538Z,19.72
2022-08-22T05:37:10.082Z,19.73
2022-08-22T05:39:38.972Z,19.94
2022-08-22T05:42:07.398Z,20.05
2022-08-22T05:44:33.749Z,20.26
2022-08-22T05:47:00.290Z,20.41
2022-08-22T05:49:26.799Z,20.57
2022-08-22T05:51:53.170Z,20.69
2022-08-22T05:54:19.591Z,20.85
2022-08-22T05:56:46.179Z,21.02
2022-08-22T05:59:12.632Z,21.22
2022-08-22T06:01:43.319Z,21.49
2022-08-22T06:04:26.181Z,21.69
2022-08-22T06:06:54.722Z,22.05
2022-08-22T06:09:23.370Z,22.27
2022-08-22T06:11:51.707Z,22.48
2022-08-22T06:20:02.139Z,22.95
2022-08-22T06:22:28.890Z,22.91
2022-08-22T06:24:57.859Z,23.22
2022-08-22T06:27:24.379Z,23.45
2022-08-22T06:29:56.201Z,23.65
2022-08-22T06:32:51.412Z,23.83
2022-08-22T06:35:12.358Z,23.98
2022-08-22T06:37:38.770Z,24.08
2022-08-22T06:40:05.156Z,24.22
2022-08-22T06:42:35.991Z,24.36
2022-08-22T06:47:50.128Z,24.68
2022-08-22T06:50:17.162Z,24.84
2022-08-22T06:52:45.809Z,25.02
2022-08-22T06:55:12.421Z,25.17
2022-08-22T06:57:41.854Z,25.29
2022-08-22T07:00:12.592Z,25.42
2022-08-22T07:02:40.274Z,25.42
2022-08-22T07:05:07.905Z,25.70
2022-08-22T07:07:34.322Z,25.97
2022-08-22T07:10:01.164Z,25.85
2022-08-22T07:12:27.553Z,25.55
2022-08-22T07:14:54.913Z,25.41
2022-08-22T07:17:22.106Z,25.31
2022-08-22T07:19:48.557Z,25.26
2022-08-22T07:22:18.040Z,25.23
2022-08-22T07:24:44.484Z,25.19
2022-08-22T07:27:10.898Z,25.17
2022-08-22T07:29:37.449Z,25.19
2022-08-22T07:32:03.837Z,25.27
2022-08-22T07:34:30.197Z,25.50
2022-08-22T07:36:56.639Z,25.67
2022-08-22T07:39:25.575Z,25.73
2022-08-22T07:41:54.066Z,26.00
2022-08-22T07:44:20.579Z,26.40
2022-08-22T07:46:47.905Z,26.53
2022-08-22T07:49:14.437Z,26.54
2022-08-22T07:51:43.396Z,26.94
2022-08-22T07:54:10.143Z,27.21
2022-08-22T07:56:36.816Z,27.46
2022-08-22T07:59:06.786Z,27.70
2022-08-22T08:01:35.812Z,27.96
2022-08-22T08:04:05.987Z,28.18
2022-08-22T08:06:32.449Z,28.43
2022-08-22T08:08:58.945Z,28.68
2022-08-22T08:11:34.556Z,28.93
2022-08-22T08:14:00.950Z,29.19
2022-08-22T08:16:32.067Z,29.42
2022-08-22T08:19:00.990Z,29.62
2022-08-22T08:21:31.242Z,29.82
2022-08-22T08:24:01.609Z,30.03
2022-08-22T08:26:28.369Z,30.23
2022-08-22T08:28:54.815Z,30.41
2022-08-22T08:31:21.223Z,30.54
2022-08-22T08:33:47.688Z,30.68
2022-08-22T08:36:14.086Z,30.87
2022-08-22T08:38:42.154Z,31.01
2022-08-22T08:41:22.451Z,31.17
2022-08-22T08:43:49.149Z,31.32
2022-08-22T08:46:19.155Z,31.42
2022-08-22T08:48:45.652Z,31.50
2022-08-22T08:51:16.097Z,31.53
2022-08-22T08:53:45.171Z,31.52
2022-08-22T08:56:16.601Z,31.46
2022-08-22T08:58:49.062Z,31.39
2022-08-22T09:01:19.484Z,31.24
2022-08-22T09:03:51.266Z,31.04
2022-08-22T09:06:19.079Z,30.54
2022-08-22T09:08:55.139Z,29.74
2022-08-22T09:11:28.270Z,29.40
2022-08-22T09:14:01.243Z,29.19
2022-08-22T09:16:28.941Z,29.02
2022-08-22T09:18:56.778Z,28.89
2022-08-22T09:21:30.595Z,28.78
2022-08-22T09:24:10.864Z,28.71
2022-08-22T09:26:40.633Z,28.69
2022-08-22T09:29:07.299Z,28.67
2022-08-22T09:31:48.013Z,28.70
2022-08-22T09:34:23.785Z,28.72
2022-08-22T09:36:51.834Z,28.74
2022-08-22T09:39:18.303Z,28.76
2022-08-22T09:41:46.615Z,28.78
2022-08-22T09:44:19.363Z,28.79
2022-08-22T09:46:48.108Z,28.80
2022-08-22T09:49:18.212Z,28.83
2022-08-22T09:51:48.049Z,28.83
2022-08-22T09:54:20.057Z,28.83
2022-08-22T09:59:34.220Z,28.83
2022-08-22T10:02:01.912Z,28.84
2022-08-22T10:04:32.609Z,28.84
2022-08-22T10:07:11.036Z,28.84
2022-08-22T10:09:47.209Z,28.86
2022-08-22T10:12:20.023Z,28.86
2022-08-22T10:14:55.791Z,28.87
2022-08-22T10:17:23.190Z,28.86
2022-08-22T10:19:54.020Z,28.82
2022-08-22T10:22:20.386Z,28.82
2022-08-22T10:24:46.802Z,28.82
2022-08-22T10:27:13.211Z,28.84
2022-08-22T10:29:48.574Z,28.83
2022-08-22T10:32:33.782Z,28.80
2022-08-22T10:35:06.284Z,28.78
2022-08-22T10:37:34.627Z,28.77
2022-08-22T10:40:02.525Z,28.70
2022-08-22T10:42:35.167Z,28.63
2022-08-22T10:45:02.241Z,28.59
2022-08-22T10:47:29.250Z,28.56
2022-08-22T10:49:55.789Z,28.52
2022-08-22T10:52:24.608Z,28.49
2022-08-22T10:54:58.009Z,28.47
2022-08-22T10:57:24.992Z,28.45
2022-08-22T10:59:55.861Z,28.43
2022-08-22T11:02:29.354Z,28.41
2022-08-22T11:04:59.246Z,28.37
2022-08-22T11:07:33.203Z,28.37
2022-08-22T11:10:11.126Z,28.37
2022-08-22T11:12:47.215Z,28.32
2022-08-22T11:15:13.975Z,28.29
2022-08-22T11:17:53.914Z,28.27
2022-08-22T11:20:27.516Z,28.23
2022-08-22T11:22:55.620Z,28.17
2022-08-22T11:25:53.983Z,28.15
2022-08-22T11:28:14.159Z,28.22
2022-08-22T11:30:44.978Z,28.24
2022-08-22T11:33:11.769Z,28.29
2022-08-22T11:35:53.610Z,28.32
2022-08-22T11:38:30.594Z,28.32
2022-08-22T11:40:59.116Z,28.30
2022-08-22T11:43:36.793Z,28.30
2022-08-22T11:46:04.210Z,28.31
2022-08-22T11:48:41.781Z,28.38
2022-08-22T11:51:36.775Z,28.40
2022-08-22T11:54:01.644Z,28.37
2022-08-22T11:56:28.223Z,28.48
2022-08-22T11:58:55.688Z,28.50
2022-08-22T12:01:25.216Z,28.49
2022-08-22T12:03:58.459Z,28.49
2022-08-22T12:06:25.183Z,28.49
2022-08-22T12:08:54.258Z,28.50
2022-08-22T12:11:26.306Z,28.51
2022-08-22T12:14:06.216Z,28.48
2022-08-22T12:16:37.470Z,28.52
2022-08-22T12:19:04.134Z,28.51
2022-08-22T12:21:38.477Z,28.51
2022-08-22T12:24:11.291Z,28.56
2022-08-22T12:26:51.107Z,28.55
2022-08-22T12:29:33.516Z,28.54
2022-08-22T12:32:04.913Z,28.49
2022-08-22T12:34:34.525Z,28.50
2022-08-22T12:37:01.184Z,28.51
2022-08-22T12:39:28.975Z,28.47
2022-08-22T12:41:59.494Z,28.47
2022-08-22T12:44:25.925Z,28.46
2022-08-22T12:46:52.293Z,28.45
2022-08-22T12:49:22.507Z,28.42
2022-08-22T12:51:55.800Z,28.40
2022-08-22T12:54:27.715Z,28.39
2022-08-22T12:56:55.987Z,28.38
2022-08-22T12:59:22.360Z,28.36
2022-08-22T13:01:48.953Z,28.36
2022-08-22T13:04:19.313Z,28.36
2022-08-22T13:06:59.978Z,28.38
2022-08-22T13:09:28.510Z,28.41
2022-08-22T13:11:55.367Z,28.39
2022-08-22T13:14:25.908Z,28.40
2022-08-22T13:16:52.979Z,28.41
2022-08-22T13:19:19.669Z,28.40
2022-08-22T13:21:46.000Z,28.39
2022-08-22T13:24:17.027Z,28.37
2022-08-22T13:26:49.339Z,28.38
2022-08-22T13:29:25.573Z,28.38
2022-08-22T13:31:52.655Z,28.39
2022-08-22T13:34:22.896Z,28.39
2022-08-22T13:36:51.855Z,28.38
2022-08-22T13:39:19.699Z,28.35
2022-08-22T13:41:46.061Z,28.33
2022-08-22T13:44:12.510Z,28.32
2022-08-22T13:47:03.974Z,28.33
2022-08-22T13:49:28.347Z,28.37
2022-08-22T13:51:54.646Z,28.38
2022-08-22T13:54:21.366Z,28.39
2022-08-22T13:56:47.708Z,28.36
2022-08-22T13:59:40.144Z,28.33
2022-08-22T14:02:03.084Z,28.31
2022-08-22T14:04:32.313Z,28.30
2022-08-22T14:07:02.681Z,28.28
2022-08-22T14:09:31.331Z,28.27
2022-08-22T14:11:59.123Z,28.25
2022-08-22T14:14:25.534Z,28.22
2022-08-22T14:16:57.111Z,28.23
2022-08-22T14:19:23.452Z,28.22
2022-08-22T14:21:53.645Z,28.20
2022-08-22T14:24:27.659Z,28.19
2022-08-22T14:26:54.009Z,28.19
2022-08-22T14:29:24.501Z,28.18
2022-08-22T14:31:51.155Z,28.17
2022-08-22T14:34:17.793Z,28.17
2022-08-22T14:36:45.345Z,28.15
2022-08-22T14:39:11.687Z,28.14
2022-08-22T14:41:52.394Z,28.12
2022-08-22T14:44:22.818Z,28.13
2022-08-22T14:46:49.769Z,28.12
2022-08-22T14:49:16.262Z,28.11
2022-08-22T14:51:44.322Z,28.09
2022-08-22T14:54:10.676Z,28.08
2022-08-22T14:56:40.447Z,28.07
2022-08-22T14:59:08.461Z,28.05
2022-08-22T15:01:39.157Z,28.05
2022-08-22T15:04:10.092Z,28.03
2022-08-22T15:06:38.294Z,28.03
2022-08-22T15:09:15.491Z,28.01
2022-08-22T15:11:43.392Z,28.00
2022-08-22T15:14:14.544Z,27.99
2022-08-22T15:16:41.797Z,27.97
2022-08-22T15:19:12.434Z,27.97
2022-08-22T15:21:38.862Z,27.96
2022-08-22T15:24:09.307Z,27.96
2022-08-22T15:26:40.039Z,27.95
2022-08-22T15:29:10.756Z,27.95
2022-08-22T15:31:41.469Z,27.94
2022-08-22T15:34:17.989Z,27.95
2022-08-22T15:36:44.722Z,27.94
2022-08-22T15:39:13.039Z,27.93
2022-08-22T15:41:40.275Z,27.92
2022-08-22T15:44:07.009Z,27.91
2022-08-22T15:46:33.841Z,27.90
2022-08-22T15:49:00.465Z,27.88
2022-08-22T15:51:27.064Z,27.86
2022-08-22T15:53:54.376Z,27.84
2022-08-22T15:56:22.154Z,27.83
2022-08-22T15:58:49.474Z,27.82
2022-08-22T16:01:19.838Z,27.79
2022-08-22T16:03:46.576Z,27.79
2022-08-22T16:06:13.002Z,27.77
2022-08-22T16:08:39.334Z,27.76
2022-08-22T16:11:05.789Z,27.75
2022-08-22T16:13:32.156Z,27.73
2022-08-22T16:15:58.703Z,27.72
2022-08-22T16:18:26.403Z,27.70
2022-08-22T16:20:53.528Z,27.69
2022-08-22T16:23:21.967Z,27.67
2022-08-22T16:25:48.938Z,27.66
2022-08-22T16:28:16.537Z,27.65
2022-08-22T16:30:43.191Z,27.63
2022-08-22T16:33:18.299Z,27.62
2022-08-22T16:35:45.033Z,27.58
2022-08-22T16:38:12.712Z,27.58
2022-08-22T16:40:39.123Z,27.55
2022-08-22T16:43:05.484Z,27.52
2022-08-22T16:45:32.840Z,27.52
2022-08-22T16:48:01.178Z,27.49
2022-08-22T16:50:27.611Z,27.48
2022-08-22T16:52:53.967Z,27.47
2022-08-22T16:55:20.329Z,27.46
2022-08-22T16:58:04.903Z,27.45
2022-08-22T17:00:32.079Z,27.43
2022-08-22T17:02:58.534Z,27.41
2022-08-22T17:05:24.857Z,27.39
2022-08-22T17:07:56.522Z,27.37
2022-08-22T17:10:22.950Z,27.36
2022-08-22T17:12:49.440Z,27.34
2022-08-22T17:15:15.809Z,27.31
2022-08-22T17:17:42.197Z,27.31
2022-08-22T17:20:08.878Z,27.29
2022-08-22T17:22:35.290Z,27.27
2022-08-22T17:25:12.231Z,27.25
2022-08-22T17:27:38.594Z,27.23
2022-08-22T17:30:04.962Z,27.20
2022-08-22T17:32:31.382Z,27.18
2022-08-22T17:35:00.115Z,27.17
2022-08-22T17:37:26.445Z,27.15
2022-08-22T17:39:55.978Z,27.13
2022-08-22T17:42:24.979Z,27.11
2022-08-22T17:44:51.617Z,27.10
2022-08-22T17:47:19.481Z,27.07
2022-08-22T17:49:48.290Z,27.04
2022-08-22T17:52:14.632Z,27.03
2022-08-22T17:54:41.187Z,27.01
2022-08-22T17:57:07.485Z,26.99
2022-08-22T17:59:36.656Z,26.96
2022-08-22T18:02:04.646Z,26.95
2022-08-22T18:04:30.996Z,26.94
2022-08-22T18:06:57.394Z,26.91
2022-08-22T18:09:23.948Z,26.89
2022-08-22T18:11:50.240Z,26.86
2022-08-22T18:14:16.590Z,26.86
2022-08-22T18:16:42.899Z,26.83
2022-08-22T18:19:09.215Z,26.81
2022-08-22T18:21:35.531Z,26.78
2022-08-22T18:24:01.797Z,26.76
2022-08-22T18:26:28.241Z,26.75
2022-08-22T18:28:54.664Z,26.71
2022-08-22T18:31:21.364Z,26.69
2022-08-22T18:33:51.576Z,26.66
2022-08-22T18:36:19.745Z,26.63
2022-08-22T18:38:46.435Z,26.58
2022-08-22T18:41:15.885Z,26.56
2022-08-22T18:43:45.895Z,26.53
2022-08-22T18:46:16.395Z,26.50
2022-08-22T18:48:59.402Z,26.46
2022-08-22T18:51:29.527Z,26.44
2022-08-22T18:53:57.522Z,26.41
2022-08-22T18:56:26.957Z,26.38
2022-08-22T18:58:54.279Z,26.35
2022-08-22T19:01:41.341Z,26.32
2022-08-22T19:04:11.184Z,26.27
2022-08-22T19:06:39.836Z,26.23
2022-08-22T19:09:06.443Z,26.21
2022-08-22T19:11:36.978Z,26.17
2022-08-22T19:14:03.664Z,26.14
2022-08-22T19:16:30.008Z,26.10
2022-08-22T19:18:56.894Z,26.06
2022-08-22T19:21:23.271Z,26.04
2022-08-22T19:23:49.713Z,26.02
2022-08-22T19:26:16.135Z,26.00
2022-08-22T19:28:42.474Z,25.98
2022-08-22T19:31:09.318Z,25.94
2022-08-22T19:33:38.497Z,25.91
2022-08-22T19:36:05.610Z,25.87
2022-08-22T19:38:42.002Z,25.85
2022-08-22T19:41:08.796Z,25.80
2022-08-22T19:43:35.767Z,25.77
2022-08-22T19:46:02.410Z,25.75
2022-08-22T19:48:34.751Z,25.72
2022-08-22T19:51:08.913Z,25.69
2022-08-22T19:53:35.364Z,25.67
2022-08-22T19:56:01.740Z,25.66
2022-08-22T19:58:32.720Z,25.61
2022-08-22T20:01:00.715Z,25.58
2022-08-22T20:03:29.047Z,25.55
2022-08-22T20:05:58.647Z,25.52
2022-08-22T20:08:26.811Z,25.50
2022-08-22T20:10:59.704Z,25.47
2022-08-22T20:13:28.496Z,25.46
2022-08-22T20:15:57.402Z,25.43
2022-08-22T20:21:13.051Z,25.38
2022-08-22T20:23:39.642Z,25.36
2022-08-22T20:26:13.609Z,25.34
2022-08-22T20:28:44.390Z,25.30
2022-08-22T20:31:21.332Z,25.29
2022-08-22T20:34:00.913Z,25.26
2022-08-22T20:37:09.619Z,25.24
2022-08-22T20:39:18.003Z,25.21
2022-08-22T20:41:44.284Z,25.19
2022-08-22T20:44:10.766Z,25.17
2022-08-22T20:46:37.471Z,25.15
2022-08-22T20:49:09.081Z,25.12
2022-08-22T20:51:36.865Z,25.09
2022-08-22T20:54:10.273Z,25.07
2022-08-22T20:56:53.568Z,25.03
2022-08-22T20:59:22.268Z,25.02
2022-08-22T21:01:48.602Z,24.99
2022-08-22T21:04:15.225Z,24.96
2022-08-22T21:06:41.586Z,24.95
2022-08-22T21:09:09.209Z,24.93
2022-08-22T21:11:35.519Z,24.90
2022-08-22T21:14:01.830Z,24.89
2022-08-22T21:16:31.214Z,24.86
2022-08-22T21:18:58.062Z,24.84
2022-08-22T21:21:24.389Z,24.83
2022-08-22T21:23:50.743Z,24.80
2022-08-22T21:26:16.995Z,24.79
2022-08-22T21:28:43.310Z,24.79
2022-08-22T21:31:09.775Z,24.77
2022-08-22T21:33:36.191Z,24.77
2022-08-22T21:36:02.523Z,24.74
2022-08-22T21:38:28.820Z,24.73
2022-08-22T21:40:55.176Z,24.72
2022-08-22T21:43:21.543Z,24.71
2022-08-22T21:45:48.041Z,24.69
2022-08-22T21:48:14.544Z,24.68
2022-08-22T21:50:40.902Z,24.67
2022-08-22T21:53:10.368Z,24.64
2022-08-22T21:55:47.058Z,24.63
2022-08-22T21:58:13.417Z,24.61
2022-08-22T22:00:59.938Z,24.61
2022-08-22T22:03:26.424Z,24.59
2022-08-22T22:05:52.835Z,24.58
2022-08-22T22:08:19.116Z,24.56
2022-08-22T22:10:45.668Z,24.55
2022-08-22T22:13:15.339Z,24.53
2022-08-22T22:15:41.709Z,24.53
2022-08-22T22:18:08.000Z,24.50
2022-08-22T22:20:36.600Z,24.49
2022-08-22T22:23:02.983Z,24.49
2022-08-22T22:25:40.759Z,24.47
2022-08-22T22:28:08.760Z,24.46
2022-08-22T22:30:35.122Z,24.45
2022-08-22T22:33:01.556Z,24.43
2022-08-22T22:35:27.992Z,24.43
2022-08-22T22:37:54.412Z,24.41
2022-08-22T22:40:20.884Z,24.21
2022-08-22T22:42:47.263Z,24.39
2022-08-22T22:45:13.835Z,24.37
2022-08-22T22:47:42.796Z,24.36
2022-08-22T22:52:38.411Z,24.33
2022-08-22T22:55:07.400Z,24.32
2022-08-22T22:57:46.857Z,24.31
2022-08-22T23:00:13.236Z,24.31
2022-08-22T23:03:26.788Z,24.30
2022-08-22T23:05:27.013Z,24.30
2022-08-22T23:07:53.480Z,24.29
2022-08-22T23:10:22.088Z,24.25
2022-08-22T23:12:52.720Z,24.21
2022-08-22T23:15:23.104Z,24.17
2022-08-22T23:17:50.770Z,24.14
2022-08-22T23:20:23.142Z,24.11
2022-08-22T23:22:52.029Z,24.09
2022-08-22T23:25:18.924Z,24.06
2022-08-22T23:27:58.571Z,24.03
2022-08-22T23:30:26.394Z,24.00
2022-08-22T23:32:57.761Z,23.96
2022-08-22T23:38:14.679Z,23.92
2022-08-22T23:40:46.688Z,23.90
2022-08-22T23:43:14.676Z,23.87
2022-08-22T23:45:41.050Z,23.85
2022-08-22T23:48:27.591Z,23.83
2022-08-22T23:50:56.109Z,23.81
2022-08-22T23:53:25.455Z,23.77
2022-08-22T23:55:59.257Z,23.74
2022-08-22T23:58:39.935Z,23.71
